Main page
METAR-TAF:

METAR-TAF

Airports :

Essex County Airport

Caldwell, New Jersey, United States

latitude: 40-52-35N, longitude: 074-16-59W, elevation: 171 ft

Current weather observation

The report was made 14 minutes ago, at 21:53 UTC
Wind 6 mph from variable directions
Temperature 54°F
Humidity 38%
Pressure 29.74 in. Hg
Visibility: 10 miles
Overcast at a height of 7000 ft

METAR: KCDW 012153Z AUTO VRB05KT 10SM OVC070 12/M02 A2974 RMK AO2 SLP075 T01221022

Time: 18:07 (22:07 UTC)


TAF: missing

Weather observations and forecasts of more than 4000 airports (METAR and TAF reports).

The available stations are represented by yellow and red dots on the map.

Hover mouse over dot to see the name of the station.

Then click to see weather observations and forecasts.

To change the map : click on the green buttons with a black cross to zoom in, on the green button with a dash to zoom out, or on the green arrows for adjacent maps.


METAR-TAF: